createdAt,value
2019-04-30T00:02:05.680Z,14.83
2019-04-30T00:04:37.277Z,14.85
2019-04-30T00:06:57.661Z,14.88
2019-04-30T00:09:25.046Z,14.95
2019-04-30T00:11:50.695Z,14.97
2019-04-30T00:14:16.654Z,14.99
2019-04-30T00:16:45.009Z,14.94
2019-04-30T00:19:10.556Z,14.91
2019-04-30T00:21:36.167Z,14.92
2019-04-30T00:24:06.213Z,14.91
2019-04-30T00:26:28.298Z,14.85
2019-04-30T00:28:55.322Z,14.84
2019-04-30T00:31:23.852Z,14.78
2019-04-30T00:33:47.260Z,14.74
2019-04-30T00:36:14.809Z,14.72
2019-04-30T00:38:39.902Z,14.72
2019-04-30T00:41:10.049Z,14.70
2019-04-30T00:43:32.565Z,14.70
2019-04-30T00:45:58.869Z,14.71
2019-04-30T00:48:29.732Z,14.68
2019-04-30T00:50:51.530Z,14.64
2019-04-30T00:53:17.835Z,14.66
2019-04-30T00:55:48.265Z,14.64
2019-04-30T00:58:10.501Z,14.60
2019-04-30T01:00:37.153Z,14.59
2019-04-30T01:03:07.864Z,14.58
2019-04-30T01:05:29.468Z,14.55
2019-04-30T01:07:55.773Z,14.42
2019-04-30T01:10:24.724Z,14.23
2019-04-30T01:12:50.302Z,14.21
2019-04-30T01:15:14.749Z,14.24
2019-04-30T01:17:45.386Z,14.21
2019-04-30T01:20:09.340Z,14.25
2019-04-30T01:22:33.692Z,14.22
2019-04-30T01:25:01.295Z,14.21
2019-04-30T01:27:26.324Z,14.22
2019-04-30T01:29:52.633Z,14.16
2019-04-30T01:32:21.060Z,13.90
2019-04-30T01:34:49.972Z,13.51
2019-04-30T01:37:11.573Z,13.20
2019-04-30T01:39:39.160Z,13.12
2019-04-30T01:42:07.956Z,13.19
2019-04-30T01:44:30.540Z,13.26
2019-04-30T01:46:58.569Z,13.21
2019-04-30T01:49:25.752Z,13.21
2019-04-30T01:51:52.863Z,13.18
2019-04-30T01:54:20.797Z,13.15
2019-04-30T01:56:42.126Z,13.07
2019-04-30T01:59:09.209Z,13.05
2019-04-30T02:01:34.776Z,13.07
2019-04-30T02:04:01.107Z,13.05
2019-04-30T02:06:29.316Z,13.04
2019-04-30T02:08:53.744Z,12.95
2019-04-30T02:11:20.073Z,12.88
2019-04-30T02:13:46.376Z,12.94
2019-04-30T02:16:12.705Z,12.96
2019-04-30T02:18:39.384Z,12.90
2019-04-30T02:21:05.336Z,12.82
2019-04-30T02:23:31.645Z,12.76
2019-04-30T02:25:58.926Z,12.78
2019-04-30T02:28:24.283Z,12.80
2019-04-30T02:30:50.821Z,12.72
2019-04-30T02:33:19.515Z,12.76
2019-04-30T02:35:43.228Z,12.90
2019-04-30T02:38:10.099Z,12.83
2019-04-30T02:40:35.863Z,12.80
2019-04-30T02:43:02.189Z,12.78
2019-04-30T02:45:29.978Z,12.85
2019-04-30T02:47:54.858Z,12.88
2019-04-30T02:50:22.557Z,12.83
2019-04-30T02:52:50.279Z,12.81
2019-04-30T02:55:13.833Z,12.80
2019-04-30T02:57:40.236Z,12.81
2019-04-30T03:00:06.450Z,12.78
2019-04-30T03:02:32.778Z,12.75
2019-04-30T03:05:00.290Z,12.68
2019-04-30T03:07:25.414Z,12.72
2019-04-30T03:09:51.740Z,12.65
2019-04-30T03:12:20.300Z,12.64
2019-04-30T03:14:44.373Z,12.65
2019-04-30T03:17:10.693Z,12.61
2019-04-30T03:19:37.053Z,12.59
2019-04-30T03:22:03.355Z,12.59
2019-04-30T03:24:29.703Z,12.59
2019-04-30T03:26:56.022Z,12.60
2019-04-30T03:29:23.841Z,12.53
2019-04-30T03:31:52.308Z,12.29
2019-04-30T03:34:24.287Z,11.94
2019-04-30T03:36:41.278Z,11.68
2019-04-30T03:39:10.639Z,11.63
2019-04-30T03:41:34.506Z,11.79
2019-04-30T03:44:16.464Z,12.00
2019-04-30T03:46:29.660Z,12.09
2019-04-30T03:48:53.411Z,12.02
2019-04-30T03:51:19.983Z,12.02
2019-04-30T03:53:46.069Z,12.11
2019-04-30T03:56:12.390Z,12.18
2019-04-30T03:58:39.627Z,12.13
2019-04-30T04:01:05.024Z,12.21
2019-04-30T04:03:31.379Z,12.33
2019-04-30T04:05:59.473Z,12.41
2019-04-30T04:08:23.994Z,12.52
2019-04-30T04:10:53.095Z,12.56
2019-04-30T04:13:16.633Z,12.61
2019-04-30T04:15:42.985Z,12.70
2019-04-30T04:18:10.712Z,12.77
2019-04-30T04:20:35.614Z,12.79
2019-04-30T04:23:01.940Z,12.83
2019-04-30T04:25:29.861Z,12.85
2019-04-30T04:27:54.563Z,12.92
2019-04-30T04:30:20.887Z,13.09
2019-04-30T04:32:49.919Z,13.66
2019-04-30T04:35:13.562Z,14.09
2019-04-30T04:37:39.865Z,14.35
2019-04-30T04:40:06.224Z,14.58
2019-04-30T04:42:33.113Z,14.98
2019-04-30T04:44:59.495Z,15.13
2019-04-30T04:47:25.184Z,14.83
2019-04-30T04:49:53.976Z,15.10
2019-04-30T04:52:21.051Z,15.32
2019-04-30T04:54:44.151Z,15.67
2019-04-30T04:57:17.244Z,15.58
2019-04-30T04:59:36.797Z,16.33
2019-04-30T05:02:03.119Z,16.59
2019-04-30T05:04:29.909Z,16.01
2019-04-30T05:06:55.810Z,15.57
2019-04-30T05:09:22.117Z,16.31
2019-04-30T05:11:48.808Z,15.97
2019-04-30T05:14:14.803Z,17.88
2019-04-30T05:16:41.128Z,19.76
2019-04-30T05:19:08.884Z,19.88
2019-04-30T05:21:41.961Z,18.24
2019-04-30T05:24:00.084Z,17.75
2019-04-30T05:26:26.421Z,17.82
2019-04-30T05:28:53.021Z,19.44
2019-04-30T05:31:21.115Z,19.03
2019-04-30T05:33:45.396Z,18.07
2019-04-30T05:36:11.744Z,18.09
2019-04-30T05:38:39.186Z,17.77
2019-04-30T05:41:04.428Z,18.29
2019-04-30T05:43:30.735Z,18.49
2019-04-30T05:45:58.622Z,18.83
2019-04-30T05:48:23.454Z,18.04
2019-04-30T05:50:51.831Z,17.01
2019-04-30T05:53:16.088Z,16.38
2019-04-30T05:55:42.449Z,16.05
2019-04-30T05:58:09.363Z,16.10
2019-04-30T06:00:35.108Z,17.20
2019-04-30T06:03:01.440Z,17.24
2019-04-30T06:05:28.577Z,17.56
2019-04-30T06:07:55.453Z,16.89
2019-04-30T06:10:20.418Z,16.95
2019-04-30T06:12:46.741Z,17.41
2019-04-30T06:15:13.147Z,17.36
2019-04-30T06:17:39.453Z,17.35
2019-04-30T06:20:17.430Z,17.73
2019-04-30T06:22:32.088Z,18.14
2019-04-30T06:24:59.488Z,18.24
2019-04-30T06:27:31.556Z,18.59
2019-04-30T06:29:58.484Z,18.18
2019-04-30T06:32:24.229Z,17.69
2019-04-30T06:34:50.542Z,17.37
2019-04-30T06:37:16.870Z,17.50
2019-04-30T06:39:43.191Z,17.90
2019-04-30T06:42:12.807Z,17.63
2019-04-30T06:44:39.308Z,17.87
2019-04-30T06:47:02.160Z,17.72
2019-04-30T06:49:28.895Z,18.73
2019-04-30T06:51:54.844Z,19.33
2019-04-30T06:54:21.147Z,18.69
2019-04-30T06:56:48.512Z,17.90
2019-04-30T06:59:13.808Z,17.59
2019-04-30T07:01:40.140Z,17.49
2019-04-30T07:04:06.465Z,16.97
2019-04-30T07:06:37.159Z,16.75
2019-04-30T07:08:59.622Z,16.74
2019-04-30T07:11:25.440Z,16.64
2019-04-30T07:13:52.260Z,16.60
2019-04-30T07:16:18.972Z,16.61
2019-04-30T07:18:44.421Z,16.64
2019-04-30T07:21:10.728Z,16.57
2019-04-30T07:23:38.721Z,16.48
2019-04-30T07:26:03.371Z,16.42
2019-04-30T07:28:43.809Z,16.25
2019-04-30T07:31:08.710Z,16.18
2019-04-30T07:33:22.362Z,16.16
2019-04-30T07:35:49.890Z,16.07
2019-04-30T07:38:14.985Z,16.18
2019-04-30T07:40:41.315Z,16.20
2019-04-30T07:43:09.110Z,16.13
2019-04-30T07:45:33.966Z,16.21
2019-04-30T07:48:00.297Z,16.18
2019-04-30T07:50:27.174Z,16.13
2019-04-30T07:53:02.514Z,16.11
2019-04-30T07:55:19.724Z,16.17
2019-04-30T07:57:45.595Z,16.10
2019-04-30T08:00:11.949Z,15.95
2019-04-30T08:02:43.448Z,15.88
2019-04-30T08:05:04.589Z,16.02
2019-04-30T08:07:31.018Z,16.21
2019-04-30T08:09:58.958Z,16.31
2019-04-30T08:12:30.495Z,16.42
2019-04-30T08:14:49.926Z,16.52
2019-04-30T08:17:16.255Z,16.62
2019-04-30T08:19:42.561Z,16.76
2019-04-30T08:22:09.573Z,16.90
2019-04-30T08:24:35.197Z,17.05
2019-04-30T08:27:01.507Z,17.11
2019-04-30T08:29:29.464Z,17.16
2019-04-30T08:31:54.141Z,17.28
2019-04-30T08:34:20.468Z,17.42
2019-04-30T08:36:48.818Z,17.43
2019-04-30T08:39:13.107Z,17.31
2019-04-30T08:41:39.463Z,17.25
2019-04-30T08:44:05.790Z,17.26
2019-04-30T08:46:32.132Z,17.23
2019-04-30T08:48:58.878Z,17.40
2019-04-30T08:51:24.804Z,17.66
2019-04-30T08:53:51.089Z,17.99
2019-04-30T08:56:21.707Z,18.26
2019-04-30T08:58:43.749Z,18.37
2019-04-30T09:01:10.061Z,18.59
2019-04-30T09:03:36.402Z,18.68
2019-04-30T09:06:02.717Z,18.82
2019-04-30T09:08:29.524Z,18.32
2019-04-30T09:10:55.371Z,17.75
2019-04-30T09:13:21.698Z,17.37
2019-04-30T09:15:49.209Z,17.27
2019-04-30T09:18:14.378Z,17.14
2019-04-30T09:20:40.992Z,16.55
2019-04-30T09:23:07.059Z,15.62
2019-04-30T09:25:33.429Z,15.35
2019-04-30T09:27:59.768Z,15.27
2019-04-30T09:30:26.054Z,15.33
2019-04-30T09:32:52.431Z,15.42
2019-04-30T09:35:19.630Z,15.39
2019-04-30T09:37:45.083Z,15.60
2019-04-30T09:40:18.225Z,16.00
2019-04-30T09:42:39.072Z,15.82
2019-04-30T09:45:04.163Z,15.42
2019-04-30T09:47:30.498Z,15.14
2019-04-30T09:49:59.073Z,14.94
2019-04-30T09:52:23.157Z,14.86
2019-04-30T09:54:50.287Z,14.64
2019-04-30T09:57:15.809Z,14.32
2019-04-30T09:59:42.119Z,14.18
2019-04-30T10:02:09.303Z,14.12
2019-04-30T10:04:35.046Z,13.92
2019-04-30T10:07:01.125Z,13.89
2019-04-30T10:09:29.233Z,13.83
2019-04-30T10:11:53.877Z,13.72
2019-04-30T10:14:20.217Z,13.76
2019-04-30T10:16:46.519Z,13.92
2019-04-30T10:19:14.962Z,14.34
2019-04-30T10:21:39.159Z,14.78
2019-04-30T10:24:14.886Z,14.84
2019-04-30T10:26:31.804Z,14.84
2019-04-30T10:28:58.158Z,15.08
2019-04-30T10:31:24.502Z,15.00
2019-04-30T10:33:50.767Z,14.91
2019-04-30T10:36:17.179Z,14.83
2019-04-30T10:38:43.474Z,14.63
2019-04-30T10:41:09.802Z,13.36
2019-04-30T10:43:36.137Z,12.38
2019-04-30T10:46:02.440Z,11.94
2019-04-30T10:48:28.799Z,12.99
2019-04-30T10:50:55.108Z,12.41
2019-04-30T10:53:21.408Z,11.88
2019-04-30T10:55:48.622Z,12.05
2019-04-30T10:58:15.429Z,11.96
2019-04-30T11:00:40.400Z,11.95
2019-04-30T11:03:17.251Z,11.37
2019-04-30T11:05:33.088Z,11.69
2019-04-30T11:07:59.596Z,12.00
2019-04-30T11:10:25.799Z,12.10
2019-04-30T11:12:52.148Z,12.19
2019-04-30T11:15:20.631Z,12.30
2019-04-30T11:17:44.958Z,12.27
2019-04-30T11:20:11.243Z,12.29
2019-04-30T11:22:37.590Z,12.58
2019-04-30T11:25:03.968Z,13.24
2019-04-30T11:27:31.111Z,13.87
2019-04-30T11:30:01.535Z,14.25
2019-04-30T11:32:22.874Z,14.63
2019-04-30T11:34:49.053Z,14.78
2019-04-30T11:37:15.416Z,15.04
2019-04-30T11:39:41.684Z,15.37
2019-04-30T11:42:08.017Z,15.65
2019-04-30T11:44:34.329Z,16.11
2019-04-30T11:47:00.652Z,16.04
2019-04-30T11:49:26.948Z,16.47
2019-04-30T11:51:53.275Z,16.66
2019-04-30T11:54:19.580Z,16.71
2019-04-30T11:56:45.921Z,17.93
2019-04-30T11:59:12.243Z,18.37
2019-04-30T12:01:38.551Z,19.08
2019-04-30T12:04:04.884Z,18.82
2019-04-30T12:06:31.245Z,18.81
2019-04-30T12:08:59.124Z,18.50
2019-04-30T12:11:23.871Z,17.91
2019-04-30T12:13:50.178Z,18.28
2019-04-30T12:16:18.530Z,18.13
2019-04-30T12:18:42.843Z,18.37
2019-04-30T12:21:09.147Z,18.73
2019-04-30T12:23:35.480Z,19.51
2019-04-30T12:26:02.982Z,19.24
2019-04-30T12:28:29.694Z,19.18
2019-04-30T12:30:54.469Z,19.58
2019-04-30T12:33:20.959Z,19.88
2019-04-30T12:35:51.032Z,20.05
2019-04-30T12:38:16.448Z,20.06
2019-04-30T12:40:42.793Z,19.95
2019-04-30T12:43:09.091Z,20.16
2019-04-30T12:45:35.413Z,20.05
2019-04-30T12:48:01.721Z,19.84
2019-04-30T12:50:29.173Z,19.57
2019-04-30T12:52:54.389Z,19.50
2019-04-30T12:55:22.511Z,19.55
2019-04-30T12:57:58.128Z,19.87
2019-04-30T13:00:13.695Z,19.97
2019-04-30T13:02:44.982Z,20.03
2019-04-30T13:05:09.272Z,19.72
2019-04-30T13:07:36.113Z,19.80
2019-04-30T13:10:02.849Z,19.85
2019-04-30T13:12:28.590Z,19.89
2019-04-30T13:14:54.918Z,19.69
2019-04-30T13:17:20.941Z,19.52
2019-04-30T13:19:47.269Z,19.55
2019-04-30T13:22:13.586Z,19.50
2019-04-30T13:24:42.740Z,19.58
2019-04-30T13:27:15.659Z,19.41
2019-04-30T13:29:35.384Z,19.41
2019-04-30T13:32:04.739Z,19.49
2019-04-30T13:34:31.117Z,19.45
2019-04-30T13:36:59.300Z,19.21
2019-04-30T13:39:23.790Z,19.45
2019-04-30T13:41:51.004Z,19.43
2019-04-30T13:44:16.694Z,19.60
2019-04-30T13:46:42.999Z,19.45
2019-04-30T13:49:09.326Z,19.60
2019-04-30T13:51:35.655Z,19.59
2019-04-30T13:54:01.976Z,19.62
2019-04-30T13:56:28.813Z,19.80
2019-04-30T13:58:54.658Z,19.70
2019-04-30T14:01:21.434Z,19.57
2019-04-30T14:03:48.904Z,19.58
2019-04-30T14:06:13.668Z,19.66
2019-04-30T14:08:39.972Z,19.62
2019-04-30T14:11:06.362Z,19.56
2019-04-30T14:13:32.686Z,19.61
2019-04-30T14:15:59.002Z,19.64
2019-04-30T14:18:30.774Z,19.78
2019-04-30T14:20:51.652Z,19.71
2019-04-30T14:23:18.614Z,19.54
2019-04-30T14:25:55.907Z,19.32
2019-04-30T14:28:10.819Z,19.40
2019-04-30T14:30:39.135Z,19.49
2019-04-30T14:33:03.366Z,19.27
2019-04-30T14:35:29.691Z,19.28
2019-04-30T14:37:56.297Z,19.16
2019-04-30T14:40:23.176Z,18.63
2019-04-30T14:42:49.412Z,18.22
2019-04-30T14:45:15.689Z,17.90
2019-04-30T14:47:42.454Z,17.75
2019-04-30T14:50:09.752Z,17.65
2019-04-30T14:52:34.235Z,17.57
2019-04-30T14:55:00.550Z,17.49
2019-04-30T14:57:26.857Z,17.37
2019-04-30T14:59:53.284Z,17.28
2019-04-30T15:02:22.383Z,17.20
2019-04-30T15:04:46.142Z,17.15
2019-04-30T15:07:12.473Z,17.17
2019-04-30T15:09:38.798Z,17.15
2019-04-30T15:12:05.137Z,17.16
2019-04-30T15:14:31.437Z,17.11
2019-04-30T15:16:57.780Z,17.16
2019-04-30T15:19:24.188Z,17.17
2019-04-30T15:21:50.642Z,17.14
2019-04-30T15:24:16.963Z,17.14
2019-04-30T15:26:44.212Z,17.11
2019-04-30T15:29:13.387Z,17.16
2019-04-30T15:31:35.943Z,17.13
2019-04-30T15:34:03.224Z,17.13
2019-04-30T15:36:29.353Z,17.04
2019-04-30T15:38:54.959Z,17.02
2019-04-30T15:41:21.279Z,16.99
2019-04-30T15:43:47.586Z,16.84
2019-04-30T15:46:13.931Z,16.76
2019-04-30T15:48:40.230Z,16.73
2019-04-30T15:51:06.541Z,16.69
2019-04-30T15:53:33.311Z,16.54
2019-04-30T15:56:00.670Z,16.47
2019-04-30T15:58:25.974Z,16.50
2019-04-30T16:00:52.390Z,16.56
2019-04-30T16:03:18.680Z,16.49
2019-04-30T16:05:45.037Z,16.42
2019-04-30T16:08:11.379Z,16.26
2019-04-30T16:10:39.622Z,16.22
2019-04-30T16:13:04.001Z,16.14
2019-04-30T16:15:30.312Z,16.03
2019-04-30T16:17:56.645Z,15.93
2019-04-30T16:20:22.960Z,15.81
2019-04-30T16:22:49.433Z,15.69
2019-04-30T16:25:15.647Z,15.55
2019-04-30T16:27:41.971Z,15.48
2019-04-30T16:30:09.526Z,15.40
2019-04-30T16:32:34.600Z,15.25
2019-04-30T16:35:00.964Z,15.12
2019-04-30T16:37:28.692Z,15.01
2019-04-30T16:39:53.602Z,14.91
2019-04-30T16:42:19.994Z,14.87
2019-04-30T16:44:46.337Z,14.87
2019-04-30T16:47:16.268Z,14.84
2019-04-30T16:49:38.999Z,14.84
2019-04-30T16:52:05.328Z,14.83
2019-04-30T16:54:31.636Z,14.80
2019-04-30T16:57:04.076Z,14.73
2019-04-30T16:59:24.318Z,14.63
2019-04-30T17:01:57.569Z,14.59
2019-04-30T17:04:19.081Z,14.55
2019-04-30T17:06:43.422Z,14.50
2019-04-30T17:09:09.743Z,14.42
2019-04-30T17:11:36.052Z,14.34
2019-04-30T17:14:02.411Z,14.27
2019-04-30T17:16:30.221Z,14.22
2019-04-30T17:18:55.000Z,14.16
2019-04-30T17:21:21.337Z,14.10
2019-04-30T17:23:50.661Z,14.08
2019-04-30T17:26:13.976Z,14.06
2019-04-30T17:28:40.301Z,14.03
2019-04-30T17:31:06.629Z,14.04
2019-04-30T17:33:33.021Z,14.00
2019-04-30T17:35:59.304Z,14.05
2019-04-30T17:38:25.649Z,14.06
2019-04-30T17:40:51.957Z,14.10
2019-04-30T17:43:18.295Z,14.15
2019-04-30T17:45:44.630Z,14.25
2019-04-30T17:48:13.271Z,14.29
2019-04-30T17:50:37.232Z,14.20
2019-04-30T17:53:03.565Z,13.95
2019-04-30T17:55:29.900Z,13.87
2019-04-30T17:57:56.206Z,13.82
2019-04-30T18:00:22.642Z,13.76
2019-04-30T18:02:48.915Z,13.75
2019-04-30T18:05:15.315Z,13.72
2019-04-30T18:07:41.642Z,13.66
2019-04-30T18:10:08.770Z,13.55
2019-04-30T18:12:34.276Z,13.40
2019-04-30T18:15:00.579Z,13.23
2019-04-30T18:17:26.934Z,12.88
2019-04-30T18:19:53.266Z,12.64
2019-04-30T18:22:19.611Z,12.39
2019-04-30T18:24:45.905Z,12.15
2019-04-30T18:27:12.223Z,12.03
2019-04-30T18:29:38.548Z,11.89
2019-04-30T18:32:04.956Z,11.77
2019-04-30T18:34:31.276Z,11.65
2019-04-30T18:36:59.320Z,11.55
2019-04-30T18:39:23.908Z,11.44
2019-04-30T18:41:50.229Z,11.32
2019-04-30T18:44:16.548Z,11.22
2019-04-30T18:46:42.867Z,11.16
2019-04-30T18:49:10.358Z,11.09
2019-04-30T18:51:39.380Z,11.00
2019-04-30T18:54:01.859Z,10.93
2019-04-30T18:56:28.976Z,10.87
2019-04-30T18:58:54.530Z,10.85
2019-04-30T19:01:20.835Z,10.79
2019-04-30T19:03:49.124Z,10.72
2019-04-30T19:06:22.899Z,10.67
2019-04-30T19:08:39.881Z,10.65
2019-04-30T19:11:06.166Z,10.60
2019-04-30T19:13:32.477Z,10.57
2019-04-30T19:16:18.759Z,10.53
2019-04-30T19:18:25.163Z,10.52
2019-04-30T19:20:51.654Z,10.51
2019-04-30T19:23:19.079Z,10.44
2019-04-30T19:25:44.272Z,10.39
2019-04-30T19:28:14.323Z,10.36
2019-04-30T19:30:38.885Z,10.37
2019-04-30T19:33:03.393Z,10.32
2019-04-30T19:35:29.705Z,10.26
2019-04-30T19:37:56.045Z,10.17
2019-04-30T19:40:22.358Z,10.16
2019-04-30T19:42:50.860Z,10.15
2019-04-30T19:45:15.055Z,10.11
2019-04-30T19:47:41.378Z,10.03
2019-04-30T19:50:09.435Z,10.04
2019-04-30T19:52:34.041Z,9.97
2019-04-30T19:55:00.353Z,10.00
2019-04-30T19:57:28.538Z,10.03
2019-04-30T19:59:53.033Z,9.99
2019-04-30T20:02:21.685Z,9.97
2019-04-30T20:04:47.375Z,9.93
2019-04-30T20:07:13.963Z,9.92
2019-04-30T20:09:42.995Z,9.91
2019-04-30T20:12:06.599Z,9.95
2019-04-30T20:14:32.937Z,10.05
2019-04-30T20:16:59.313Z,10.03
2019-04-30T20:19:25.620Z,10.00
2019-04-30T20:21:54.004Z,10.00
2019-04-30T20:24:19.360Z,10.00
2019-04-30T20:26:44.701Z,9.98
2019-04-30T20:29:11.046Z,9.96
2019-04-30T20:31:38.537Z,9.99
2019-04-30T20:34:03.811Z,10.00
2019-04-30T20:36:30.257Z,9.96
2019-04-30T20:38:56.652Z,9.98
2019-04-30T20:41:22.999Z,9.96
2019-04-30T20:43:49.435Z,9.94
2019-04-30T20:46:15.706Z,9.93
2019-04-30T20:48:41.972Z,9.92
2019-04-30T20:51:09.600Z,9.89
2019-04-30T20:53:34.477Z,9.86
2019-04-30T20:56:00.815Z,9.86
2019-04-30T20:58:27.123Z,9.88
2019-04-30T21:01:01.131Z,9.85
2019-04-30T21:03:19.768Z,9.82
2019-04-30T21:05:46.077Z,9.82
2019-04-30T21:08:12.413Z,9.76
2019-04-30T21:10:39.689Z,9.74
2019-04-30T21:13:05.120Z,9.72
2019-04-30T21:15:34.235Z,9.66
2019-04-30T21:18:00.536Z,9.59
2019-04-30T21:20:28.511Z,9.56
2019-04-30T21:22:53.194Z,9.52
2019-04-30T21:25:19.507Z,9.54
2019-04-30T21:27:45.835Z,9.47
2019-04-30T21:30:12.140Z,9.45
2019-04-30T21:32:38.805Z,9.42
2019-04-30T21:35:04.895Z,9.44
2019-04-30T21:37:31.223Z,9.41
2019-04-30T21:39:58.607Z,9.33
2019-04-30T21:42:23.838Z,9.30
2019-04-30T21:44:50.163Z,9.21
2019-04-30T21:47:16.469Z,9.17
2019-04-30T21:49:42.794Z,9.12
2019-04-30T21:52:09.097Z,9.18
2019-04-30T21:54:35.431Z,9.21
2019-04-30T21:57:01.729Z,9.13
2019-04-30T21:59:28.725Z,9.11
2019-04-30T22:01:54.387Z,9.16
2019-04-30T22:04:20.691Z,9.20
2019-04-30T22:06:47.032Z,9.22
2019-04-30T22:09:13.328Z,9.19
2019-04-30T22:11:39.650Z,9.17
2019-04-30T22:14:05.976Z,9.30
2019-04-30T22:16:32.301Z,9.21
2019-04-30T22:18:58.604Z,9.13
2019-04-30T22:21:24.918Z,9.12
2019-04-30T22:23:51.248Z,9.08
2019-04-30T22:26:17.555Z,9.05
2019-04-30T22:28:43.877Z,9.01
2019-04-30T22:31:10.203Z,8.97
2019-04-30T22:33:36.509Z,8.89
2019-04-30T22:36:02.835Z,8.86
2019-04-30T22:38:29.259Z,8.82
2019-04-30T22:40:55.523Z,8.74
2019-04-30T22:43:21.849Z,8.69
2019-04-30T22:45:49.873Z,8.65
2019-04-30T22:48:14.478Z,8.68
2019-04-30T22:50:40.786Z,8.65
2019-04-30T22:53:07.143Z,8.60
2019-04-30T22:55:33.463Z,8.57
2019-04-30T22:57:59.783Z,8.58
2019-04-30T23:00:26.107Z,8.60
2019-04-30T23:02:53.604Z,8.60
2019-04-30T23:05:20.637Z,8.55
2019-04-30T23:07:46.940Z,8.53
2019-04-30T23:10:13.272Z,8.55
2019-04-30T23:12:39.608Z,8.50
2019-04-30T23:15:05.949Z,8.43
2019-04-30T23:17:32.252Z,8.34
2019-04-30T23:19:58.593Z,8.39
2019-04-30T23:22:24.914Z,8.36
2019-04-30T23:24:51.212Z,8.31
2019-04-30T23:27:17.544Z,8.33
2019-04-30T23:29:43.856Z,8.29
2019-04-30T23:32:10.187Z,8.26
2019-04-30T23:34:36.489Z,8.21
2019-04-30T23:37:02.814Z,8.21
2019-04-30T23:39:29.167Z,8.17
2019-04-30T23:41:55.913Z,8.14
2019-04-30T23:44:22.325Z,8.17
2019-04-30T23:46:48.630Z,8.12
2019-04-30T23:49:14.962Z,8.05
2019-04-30T23:51:41.291Z,8.03
2019-04-30T23:54:07.598Z,8.03
2019-04-30T23:56:33.918Z,8.00
2019-04-30T23:59:00.244Z,7.93
